createdAt,value
2019-05-23T00:00:50.726Z,100.0
2019-05-23T00:02:50.631Z,100.0
2019-05-23T00:04:50.138Z,100.0
2019-05-23T00:06:50.303Z,100.0
2019-05-23T00:08:50.246Z,100.0
2019-05-23T00:10:50.234Z,100.0
2019-05-23T00:12:50.217Z,100.0
2019-05-23T00:14:50.175Z,100.0
2019-05-23T00:16:50.734Z,100.0
2019-05-23T00:18:50.633Z,100.0
2019-05-23T00:20:50.707Z,100.0
2019-05-23T00:22:50.615Z,100.0
2019-05-23T00:24:50.624Z,100.0
2019-05-23T00:26:49.845Z,100.0
2019-05-23T00:28:49.890Z,100.0
2019-05-23T00:30:49.807Z,100.0
2019-05-23T00:32:49.910Z,100.0
2019-05-23T00:34:50.370Z,100.0
2019-05-23T00:36:50.504Z,100.0
2019-05-23T00:38:50.590Z,100.0
2019-05-23T00:40:50.585Z,100.0
2019-05-23T00:42:50.498Z,100.0
2019-05-23T00:44:50.508Z,100.0
2019-05-23T00:46:50.543Z,100.0
2019-05-23T00:48:50.766Z,100.0
2019-05-23T00:50:50.719Z,100.0
2019-05-23T00:52:49.793Z,100.0
2019-05-23T00:54:49.838Z,100.0
2019-05-23T00:56:49.955Z,100.0
2019-05-23T00:58:49.912Z,100.0
2019-05-23T01:00:49.924Z,100.0
2019-05-23T01:02:49.983Z,100.0
2019-05-23T01:04:50.394Z,100.0
2019-05-23T01:06:50.651Z,100.0
2019-05-23T01:08:50.689Z,100.0
2019-05-23T01:10:50.680Z,100.0
2019-05-23T01:12:50.800Z,100.0
2019-05-23T01:14:50.941Z,100.0
2019-05-23T01:16:50.023Z,100.0
2019-05-23T01:18:50.102Z,100.0
2019-05-23T01:20:50.100Z,100.0
2019-05-23T01:22:50.046Z,100.0
2019-05-23T01:24:50.171Z,100.0
2019-05-23T01:26:50.435Z,100.0
2019-05-23T01:28:50.475Z,100.0
2019-05-23T01:30:50.529Z,100.0
2019-05-23T01:32:50.583Z,100.0
2019-05-23T01:34:49.975Z,100.0
2019-05-23T01:36:50.091Z,100.0
2019-05-23T01:38:50.098Z,100.0
2019-05-23T01:40:50.079Z,100.0
2019-05-23T01:42:50.013Z,100.0
2019-05-23T01:44:49.976Z,100.0
2019-05-23T01:46:50.281Z,100.0
2019-05-23T01:48:50.341Z,100.0
2019-05-23T01:50:50.915Z,100.0
2019-05-23T01:52:50.077Z,100.0
2019-05-23T01:54:50.141Z,100.0
2019-05-23T01:56:50.349Z,100.0
2019-05-23T01:58:50.473Z,100.0
2019-05-23T02:00:50.400Z,100.0
2019-05-23T02:02:50.384Z,100.0
2019-05-23T02:04:50.667Z,100.0
2019-05-23T02:06:49.927Z,100.0
2019-05-23T02:08:50.389Z,100.0
2019-05-23T02:10:50.397Z,100.0
2019-05-23T02:12:50.412Z,100.0
2019-05-23T02:14:50.403Z,100.0
2019-05-23T02:16:50.521Z,100.0
2019-05-23T02:18:50.566Z,100.0
2019-05-23T02:20:50.715Z,100.0
2019-05-23T02:22:50.718Z,100.0
2019-05-23T02:24:50.767Z,100.0
2019-05-23T02:26:49.985Z,100.0
2019-05-23T02:28:49.989Z,100.0
2019-05-23T02:30:49.930Z,100.0
2019-05-23T02:32:49.890Z,100.0
2019-05-23T02:34:50.326Z,100.0
2019-05-23T02:36:50.461Z,100.0
2019-05-23T02:38:50.511Z,100.0
2019-05-23T02:40:50.478Z,100.0
2019-05-23T02:42:50.556Z,100.0
2019-05-23T02:44:50.568Z,100.0
2019-05-23T02:46:50.786Z,100.0
2019-05-23T02:48:49.791Z,100.0
2019-05-23T02:50:49.821Z,100.0
2019-05-23T02:52:49.890Z,100.0
2019-05-23T02:54:49.987Z,100.0
2019-05-23T02:56:50.272Z,100.0
2019-05-23T02:58:50.387Z,100.0
2019-05-23T03:00:56.099Z,100.0
2019-05-23T03:02:50.159Z,100.0
2019-05-23T03:04:50.537Z,100.0
2019-05-23T03:06:50.622Z,100.0
2019-05-23T03:08:50.705Z,100.0
2019-05-23T03:10:50.812Z,100.0
2019-05-23T03:12:50.762Z,100.0
2019-05-23T03:14:49.863Z,100.0
2019-05-23T03:16:50.177Z,100.0
2019-05-23T03:18:50.310Z,100.0
2019-05-23T03:20:50.294Z,100.0
2019-05-23T03:22:50.381Z,100.0
2019-05-23T03:24:50.360Z,100.0
2019-05-23T03:26:50.465Z,100.0
2019-05-23T03:28:50.043Z,100.0
2019-05-23T03:30:50.116Z,100.0
2019-05-23T03:32:50.205Z,100.0
2019-05-23T03:34:50.509Z,100.0
2019-05-23T03:36:50.714Z,100.0
2019-05-23T03:38:50.738Z,100.0
2019-05-23T03:40:50.885Z,100.0
2019-05-23T03:42:49.927Z,100.0
2019-05-23T03:44:49.976Z,100.0
2019-05-23T03:46:50.146Z,100.0
2019-05-23T03:48:50.172Z,100.0
2019-05-23T03:50:50.243Z,100.0
2019-05-23T03:52:50.229Z,100.0
2019-05-23T03:54:50.226Z,100.0
2019-05-23T03:56:50.345Z,100.0
2019-05-23T03:58:50.403Z,100.0
2019-05-23T04:00:50.461Z,100.0
2019-05-23T04:02:50.484Z,100.0
2019-05-23T04:04:49.884Z,100.0
2019-05-23T04:06:50.145Z,100.0
2019-05-23T04:08:50.118Z,100.0
2019-05-23T04:10:52.987Z,100.0
2019-05-23T04:12:50.044Z,100.0
2019-05-23T04:14:50.063Z,100.0
2019-05-23T04:16:50.199Z,100.0
2019-05-23T04:18:50.153Z,100.0
2019-05-23T04:20:50.147Z,100.0
2019-05-23T04:22:50.144Z,100.0
2019-05-23T04:24:50.096Z,100.0
2019-05-23T04:26:50.424Z,100.0
2019-05-23T04:28:50.490Z,100.0
2019-05-23T04:30:50.436Z,100.0
2019-05-23T04:32:50.420Z,100.0
2019-05-23T04:34:50.768Z,100.0
2019-05-23T04:36:50.008Z,100.0
2019-05-23T04:38:50.025Z,100.0
2019-05-23T04:40:50.191Z,100.0
2019-05-23T04:42:50.254Z,100.0
2019-05-23T04:44:50.296Z,100.0
2019-05-23T04:46:50.500Z,100.0
2019-05-23T04:48:50.576Z,100.0
2019-05-23T04:50:50.639Z,100.0
2019-05-23T04:52:50.656Z,100.0
2019-05-23T04:54:50.723Z,100.0
2019-05-23T04:56:49.953Z,100.0
2019-05-23T04:58:49.883Z,100.0
2019-05-23T05:00:49.863Z,100.0
2019-05-23T05:02:49.860Z,100.0
2019-05-23T05:04:50.363Z,100.0
2019-05-23T05:06:50.563Z,100.0
2019-05-23T05:08:50.584Z,100.0
2019-05-23T05:10:50.562Z,100.0
2019-05-23T05:12:50.635Z,100.0
2019-05-23T05:14:50.575Z,100.0
2019-05-23T05:16:50.806Z,100.0
2019-05-23T05:18:49.811Z,100.0
2019-05-23T05:20:50.765Z,100.0
2019-05-23T05:22:49.863Z,100.0
2019-05-23T05:24:49.898Z,100.0
2019-05-23T05:26:50.107Z,100.0
2019-05-23T05:28:50.189Z,100.0
2019-05-23T05:30:50.209Z,100.0
2019-05-23T05:32:50.191Z,100.0
2019-05-23T05:34:50.568Z,100.0
2019-05-23T05:36:50.478Z,100.0
2019-05-23T05:38:50.472Z,100.0
2019-05-23T05:40:50.610Z,100.0
2019-05-23T05:42:50.526Z,100.0
2019-05-23T05:44:50.483Z,100.0
2019-05-23T05:46:50.667Z,100.0
2019-05-23T05:48:50.713Z,100.0
2019-05-23T05:50:50.669Z,100.0
2019-05-23T05:52:50.709Z,100.0
2019-05-23T05:54:50.741Z,100.0
2019-05-23T05:56:49.793Z,100.0
2019-05-23T05:58:49.931Z,100.0
2019-05-23T06:00:49.965Z,100.0
2019-05-23T06:03:06.223Z,100.0
2019-05-23T06:04:50.013Z,100.0
2019-05-23T06:06:50.673Z,100.0
2019-05-23T06:08:50.761Z,100.0
2019-05-23T06:10:50.830Z,100.0
2019-05-23T06:12:49.877Z,100.0
2019-05-23T06:14:49.956Z,100.0
2019-05-23T06:16:50.189Z,100.0
2019-05-23T06:18:50.161Z,100.0
2019-05-23T06:20:50.178Z,100.0
2019-05-23T06:22:50.210Z,100.0
2019-05-23T06:24:58.493Z,100.0
2019-05-23T06:26:50.619Z,100.0
2019-05-23T06:28:50.497Z,100.0
2019-05-23T06:30:50.500Z,100.0
2019-05-23T06:32:50.598Z,100.0
2019-05-23T06:34:50.041Z,100.0
2019-05-23T06:36:50.198Z,100.0
2019-05-23T06:38:50.193Z,100.0
2019-05-23T06:40:50.112Z,100.0
2019-05-23T06:42:51.678Z,100.0
2019-05-23T06:44:50.610Z,100.0
2019-05-23T06:46:50.742Z,100.0
2019-05-23T06:48:49.827Z,100.0
2019-05-23T06:50:50.739Z,100.0
2019-05-23T06:52:50.762Z,100.0
2019-05-23T06:54:49.834Z,100.0
2019-05-23T06:56:50.038Z,100.0
2019-05-23T06:58:50.036Z,100.0
2019-05-23T07:00:50.367Z,100.0
2019-05-23T07:02:50.385Z,100.0
2019-05-23T07:04:50.685Z,100.0
2019-05-23T07:06:49.853Z,100.0
2019-05-23T07:08:49.864Z,100.0
2019-05-23T07:10:49.883Z,100.0
2019-05-23T07:12:50.014Z,99.3
2019-05-23T07:14:50.080Z,100.0
2019-05-23T07:16:50.941Z,99.8
2019-05-23T07:18:49.988Z,99.2
2019-05-23T07:20:50.120Z,97.0
2019-05-23T07:22:50.229Z,95.9
2019-05-23T07:24:59.471Z,96.0
2019-05-23T07:26:50.752Z,94.7
2019-05-23T07:28:49.801Z,92.7
2019-05-23T07:30:49.788Z,94.1
2019-05-23T07:32:49.979Z,92.8
2019-05-23T07:34:50.574Z,93.0
2019-05-23T07:36:50.827Z,94.4
2019-05-23T07:38:49.970Z,92.5
2019-05-23T07:40:49.991Z,90.7
2019-05-23T07:42:50.124Z,90.7
2019-05-23T07:44:50.156Z,91.2
2019-05-23T07:46:50.461Z,87.7
2019-05-23T07:48:50.522Z,85.6
2019-05-23T07:50:50.650Z,84.1
2019-05-23T07:52:50.773Z,86.6
2019-05-23T07:54:49.837Z,80.3
2019-05-23T07:56:49.955Z,79.9
2019-05-23T07:58:50.116Z,80.6
2019-05-23T08:00:50.101Z,78.2
2019-05-23T08:02:50.220Z,76.8
2019-05-23T08:04:50.665Z,75.9
2019-05-23T08:06:49.850Z,77.6
2019-05-23T08:08:49.883Z,72.5
2019-05-23T08:10:50.044Z,71.9
2019-05-23T08:12:50.101Z,72.6
2019-05-23T08:14:50.159Z,74.1
2019-05-23T08:16:50.385Z,69.6
2019-05-23T08:18:50.533Z,69.6
2019-05-23T08:20:50.555Z,67.3
2019-05-23T08:22:50.653Z,67.2
2019-05-23T08:24:52.080Z,69.0
2019-05-23T08:26:50.319Z,68.1
2019-05-23T08:29:26.993Z,67.1
2019-05-23T08:30:49.874Z,68.2
2019-05-23T08:32:50.178Z,69.2
2019-05-23T08:34:50.654Z,67.1
2019-05-23T08:36:50.217Z,68.3
2019-05-23T08:38:50.318Z,69.5
2019-05-23T08:40:50.672Z,68.7
2019-05-23T08:42:50.807Z,66.0
2019-05-23T08:44:49.969Z,66.1
2019-05-23T08:46:50.337Z,66.1
2019-05-23T08:48:50.353Z,66.5
2019-05-23T08:50:52.390Z,63.0
2019-05-23T08:52:50.475Z,61.6
2019-05-23T08:54:50.567Z,59.0
2019-05-23T08:56:49.811Z,60.3
2019-05-23T08:58:50.129Z,60.7
2019-05-23T09:00:50.427Z,60.1
2019-05-23T09:02:50.525Z,61.2
2019-05-23T09:05:07.130Z,58.5
2019-05-23T09:06:50.270Z,58.0
2019-05-23T09:08:50.361Z,59.0
2019-05-23T09:10:50.469Z,61.4
2019-05-23T09:12:50.446Z,61.5
2019-05-23T09:14:50.488Z,57.3
2019-05-23T09:16:50.709Z,59.9
2019-05-23T09:18:49.925Z,57.7
2019-05-23T09:20:49.960Z,57.1
2019-05-23T09:22:50.099Z,57.0
2019-05-23T09:24:50.205Z,56.8
2019-05-23T09:26:50.340Z,58.0
2019-05-23T09:28:50.528Z,57.2
2019-05-23T09:30:50.634Z,59
2019-05-23T09:32:50.756Z,59
2019-05-23T09:34:50.327Z,58
2019-05-23T09:36:50.491Z,58
2019-05-23T09:38:51.063Z,58
2019-05-23T09:40:50.112Z,57
2019-05-23T09:42:50.279Z,58
2019-05-23T09:44:50.434Z,55
2019-05-23T09:46:50.701Z,53.0
2019-05-23T09:48:49.818Z,50.2
2019-05-23T09:50:49.955Z,52.6
2019-05-23T09:52:49.977Z,52.6
2019-05-23T09:54:50.079Z,53.1
2019-05-23T09:56:50.257Z,49.2
2019-05-23T09:58:50.352Z,52.4
2019-05-23T10:00:50.639Z,49.6
2019-05-23T10:02:50.694Z,56
2019-05-23T10:04:50.215Z,46.3
2019-05-23T10:06:50.517Z,47.3
2019-05-23T10:08:50.673Z,47.2
2019-05-23T10:10:49.916Z,46.3
2019-05-23T10:12:49.941Z,46.2
2019-05-23T10:14:50.120Z,51
2019-05-23T10:16:50.418Z,51
2019-05-23T10:18:50.506Z,52
2019-05-23T10:20:49.822Z,53
2019-05-23T10:22:50.407Z,53
2019-05-23T10:24:50.552Z,53
2019-05-23T10:26:49.853Z,51
2019-05-23T10:28:49.901Z,51
2019-05-23T10:30:50.323Z,52
2019-05-23T10:32:50.399Z,49.4
2019-05-23T10:34:50.129Z,47.7
2019-05-23T10:36:50.451Z,52
2019-05-23T10:38:50.632Z,52
2019-05-23T10:40:50.328Z,51
2019-05-23T10:42:50.380Z,51
2019-05-23T10:44:50.538Z,51
2019-05-23T10:46:50.773Z,51
2019-05-23T10:48:49.836Z,50
2019-05-23T10:50:49.954Z,51
2019-05-23T10:52:49.987Z,51
2019-05-23T10:54:50.125Z,51
2019-05-23T10:56:50.428Z,50
2019-05-23T10:58:50.494Z,49
2019-05-23T11:00:50.582Z,48
2019-05-23T11:02:50.677Z,48
2019-05-23T11:04:50.285Z,49
2019-05-23T11:06:50.523Z,49
2019-05-23T11:08:50.647Z,48
2019-05-23T11:10:50.866Z,48
2019-05-23T11:12:49.835Z,48
2019-05-23T11:14:49.916Z,49
2019-05-23T11:16:50.043Z,48
2019-05-23T11:18:50.089Z,48
2019-05-23T11:20:50.107Z,48
2019-05-23T11:22:50.254Z,47
2019-05-23T11:24:50.330Z,45
2019-05-23T11:26:50.502Z,48
2019-05-23T11:28:50.661Z,49
2019-05-23T11:30:50.692Z,49
2019-05-23T11:32:50.767Z,48
2019-05-23T11:34:50.208Z,48
2019-05-23T11:36:50.546Z,46
2019-05-23T11:38:50.621Z,44
2019-05-23T11:40:50.773Z,44
2019-05-23T11:42:53.337Z,43
2019-05-23T11:44:50.513Z,44
2019-05-23T11:46:49.900Z,43
2019-05-23T11:48:49.980Z,43
2019-05-23T11:50:50.103Z,44
2019-05-23T11:52:50.218Z,45
2019-05-23T11:54:50.396Z,45
2019-05-23T11:56:50.724Z,45
2019-05-23T11:58:50.522Z,41.8
2019-05-23T12:00:50.842Z,42.4
2019-05-23T12:02:50.375Z,41.1
2019-05-23T12:04:49.847Z,46
2019-05-23T12:06:57.146Z,46
2019-05-23T12:08:50.295Z,46
2019-05-23T12:10:50.565Z,43.2
2019-05-23T12:12:50.638Z,42.9
2019-05-23T12:14:50.764Z,43.0
2019-05-23T12:16:50.360Z,46.7
2019-05-23T12:18:50.461Z,49.8
2019-05-23T12:20:50.589Z,45.5
2019-05-23T12:22:50.898Z,45.0
2019-05-23T12:24:50.092Z,42.5
2019-05-23T12:26:50.266Z,47
2019-05-23T12:28:50.338Z,47
2019-05-23T12:30:50.428Z,47
2019-05-23T12:32:50.383Z,46
2019-05-23T12:35:12.546Z,46
2019-05-23T12:36:50.382Z,46
2019-05-23T12:38:50.539Z,44
2019-05-23T12:40:50.632Z,46
2019-05-23T12:42:50.759Z,46
2019-05-23T12:44:50.717Z,44
2019-05-23T12:46:50.020Z,44
2019-05-23T12:48:50.138Z,44
2019-05-23T12:50:54.797Z,46
2019-05-23T12:52:49.957Z,45
2019-05-23T12:54:49.920Z,45
2019-05-23T12:56:50.287Z,45
2019-05-23T12:58:50.399Z,45
2019-05-23T13:00:50.590Z,43
2019-05-23T13:02:49.961Z,43
2019-05-23T13:04:50.479Z,45
2019-05-23T13:06:50.675Z,45
2019-05-23T13:08:50.867Z,44
2019-05-23T13:10:50.027Z,46
2019-05-23T13:12:50.100Z,46
2019-05-23T13:14:59.460Z,46
2019-05-23T13:16:50.529Z,44.0
2019-05-23T13:18:50.553Z,44.6
2019-05-23T13:20:50.601Z,46
2019-05-23T13:22:50.743Z,46
2019-05-23T13:24:53.935Z,46
2019-05-23T13:26:50.594Z,47
2019-05-23T13:28:50.635Z,47
2019-05-23T13:30:49.870Z,47
2019-05-23T13:32:50.189Z,46
2019-05-23T13:34:50.547Z,46
2019-05-23T13:36:50.871Z,46
2019-05-23T13:38:50.377Z,46
2019-05-23T13:40:50.681Z,46
2019-05-23T13:42:50.182Z,46
2019-05-23T13:44:50.280Z,46
2019-05-23T13:46:50.531Z,47
2019-05-23T13:48:50.653Z,47
2019-05-23T13:50:49.860Z,47
2019-05-23T13:52:50.518Z,46
2019-05-23T13:54:50.441Z,46
2019-05-23T13:56:50.124Z,46
2019-05-23T13:58:50.110Z,45
2019-05-23T14:00:50.439Z,46
2019-05-23T14:02:50.161Z,46
2019-05-23T14:04:50.729Z,45
2019-05-23T14:06:49.974Z,45
2019-05-23T14:08:50.086Z,44
2019-05-23T14:10:50.120Z,44
2019-05-23T14:12:50.220Z,44
2019-05-23T14:14:50.278Z,44
2019-05-23T14:16:50.521Z,44
2019-05-23T14:18:50.663Z,45
2019-05-23T14:20:50.780Z,45
2019-05-23T14:22:50.786Z,46
2019-05-23T14:24:49.851Z,46
2019-05-23T14:26:49.994Z,45
2019-05-23T14:28:50.056Z,46
2019-05-23T14:30:50.133Z,46
2019-05-23T14:32:50.282Z,46
2019-05-23T14:34:50.669Z,45
2019-05-23T14:36:49.989Z,44
2019-05-23T14:38:50.149Z,45
2019-05-23T14:40:50.342Z,45
2019-05-23T14:42:53.843Z,46
2019-05-23T14:44:49.978Z,45
2019-05-23T14:46:50.279Z,46
2019-05-23T14:48:50.406Z,46
2019-05-23T14:50:50.307Z,46
2019-05-23T14:52:50.658Z,46
2019-05-23T14:54:50.708Z,46
2019-05-23T14:56:50.018Z,46
2019-05-23T14:58:50.056Z,46
2019-05-23T15:00:50.143Z,46
2019-05-23T15:02:50.288Z,46
2019-05-23T15:04:49.779Z,44
2019-05-23T15:06:49.994Z,44
2019-05-23T15:08:52.708Z,44
2019-05-23T15:10:50.748Z,46
2019-05-23T15:12:49.817Z,44
2019-05-23T15:14:50.013Z,46
2019-05-23T15:16:50.398Z,46
2019-05-23T15:18:50.544Z,46
2019-05-23T15:20:50.543Z,45
2019-05-23T15:22:51.393Z,44
2019-05-23T15:24:50.069Z,45
2019-05-23T15:26:50.443Z,45
2019-05-23T15:28:50.536Z,45
2019-05-23T15:30:50.742Z,45
2019-05-23T15:32:49.896Z,44
2019-05-23T15:34:50.362Z,43
2019-05-23T15:36:50.707Z,43
2019-05-23T15:39:11.164Z,45
2019-05-23T15:40:50.020Z,45
2019-05-23T15:42:50.039Z,45
2019-05-23T15:44:50.369Z,45
2019-05-23T15:46:50.661Z,43
2019-05-23T15:48:50.595Z,43
2019-05-23T15:50:50.622Z,43
2019-05-23T15:52:50.571Z,43
2019-05-23T15:54:50.579Z,43
2019-05-23T15:56:50.793Z,44
2019-05-23T15:58:50.699Z,44
2019-05-23T16:00:50.860Z,43
2019-05-23T16:02:49.917Z,43
2019-05-23T16:04:50.227Z,44
2019-05-23T16:06:50.394Z,44
2019-05-23T16:08:50.405Z,45
2019-05-23T16:10:50.406Z,44
2019-05-23T16:12:50.460Z,43.2
2019-05-23T16:14:50.401Z,44.9
2019-05-23T16:16:50.437Z,46.2
2019-05-23T16:18:50.394Z,45.9
2019-05-23T16:20:50.489Z,44
2019-05-23T16:22:50.555Z,44
2019-05-23T16:24:50.472Z,41.6
2019-05-23T16:26:50.596Z,45
2019-05-23T16:28:50.570Z,44
2019-05-23T16:30:50.598Z,44
2019-05-23T16:32:50.577Z,45
2019-05-23T16:34:49.790Z,45
2019-05-23T16:36:49.932Z,45
2019-05-23T16:38:49.882Z,45
2019-05-23T16:40:49.853Z,45
2019-05-23T16:42:49.913Z,45
2019-05-23T16:44:49.849Z,45
2019-05-23T16:46:49.905Z,45
2019-05-23T16:48:49.882Z,45
2019-05-23T16:50:50.011Z,45
2019-05-23T16:52:49.999Z,45
2019-05-23T16:54:50.015Z,44
2019-05-23T16:56:50.373Z,44
2019-05-23T16:58:50.343Z,44
2019-05-23T17:00:50.418Z,43
2019-05-23T17:02:50.345Z,43
2019-05-23T17:05:11.426Z,44
2019-05-23T17:06:50.441Z,44
2019-05-23T17:08:50.582Z,44
2019-05-23T17:10:50.563Z,44.2
2019-05-23T17:12:50.564Z,44.0
2019-05-23T17:14:52.493Z,44.1
2019-05-23T17:16:50.797Z,44.5
2019-05-23T17:18:50.418Z,44.7
2019-05-23T17:20:50.242Z,46.5
2019-05-23T17:22:50.180Z,46.4
2019-05-23T17:24:50.214Z,45.6
2019-05-23T17:26:50.491Z,45.3
2019-05-23T17:28:50.573Z,46.1
2019-05-23T17:30:50.487Z,46.9
2019-05-23T17:32:50.549Z,44.6
2019-05-23T17:34:49.805Z,47.6
2019-05-23T17:36:50.003Z,45.8
2019-05-23T17:38:50.006Z,44.0
2019-05-23T17:40:50.026Z,43.5
2019-05-23T17:42:50.116Z,45.8
2019-05-23T17:44:50.086Z,42.9
2019-05-23T17:46:50.163Z,43.0
2019-05-23T17:48:50.116Z,42.6
2019-05-23T17:50:50.191Z,43.1
2019-05-23T17:52:50.188Z,44.0
2019-05-23T17:54:50.252Z,43.1
2019-05-23T17:56:50.722Z,49.8
2019-05-23T17:58:50.784Z,43.7
2019-05-23T18:00:49.781Z,43.4
2019-05-23T18:02:49.782Z,43.7
2019-05-23T18:04:50.180Z,44.7
2019-05-23T18:06:50.268Z,44.2
2019-05-23T18:08:50.250Z,48.6
2019-05-23T18:10:50.207Z,47.1
2019-05-23T18:12:50.244Z,45.7
2019-05-23T18:14:50.228Z,46.0
2019-05-23T18:16:50.502Z,45.2
2019-05-23T18:18:50.512Z,47.3
2019-05-23T18:20:50.489Z,47.3
2019-05-23T18:22:50.509Z,51.1
2019-05-23T18:24:50.361Z,51.1
2019-05-23T18:26:50.496Z,48.2
2019-05-23T18:28:50.521Z,53.6
2019-05-23T18:30:50.506Z,52.9
2019-05-23T18:32:50.575Z,57.2
2019-05-23T18:34:49.894Z,56.2
2019-05-23T18:36:50.082Z,57.6
2019-05-23T18:38:50.091Z,58.9
2019-05-23T18:41:09.698Z,58.4
2019-05-23T18:42:50.488Z,63.0
2019-05-23T18:44:50.602Z,61.7
2019-05-23T18:46:49.786Z,60.3
2019-05-23T18:48:49.969Z,61.8
2019-05-23T18:50:50.042Z,67.2
2019-05-23T18:52:52.452Z,65.8
2019-05-23T18:54:50.496Z,67.1
2019-05-23T18:56:50.710Z,69.5
2019-05-23T18:58:49.828Z,68.7
2019-05-23T19:00:49.987Z,68.9
2019-05-23T19:02:49.842Z,73.3
2019-05-23T19:04:50.231Z,76.2
2019-05-23T19:06:50.402Z,75.8
2019-05-23T19:08:50.557Z,75.9
2019-05-23T19:10:50.643Z,73.6
2019-05-23T19:12:50.657Z,75.7
2019-05-23T19:14:50.691Z,76.7
2019-05-23T19:16:49.941Z,75.2
2019-05-23T19:18:49.983Z,74.4
2019-05-23T19:20:55.580Z,77.2
2019-05-23T19:22:50.700Z,78.2
2019-05-23T19:24:50.732Z,78.5
2019-05-23T19:26:49.901Z,81.1
2019-05-23T19:28:49.944Z,81.4
2019-05-23T19:30:50.043Z,82.8
2019-05-23T19:32:50.181Z,84.3
2019-05-23T19:34:50.520Z,84.1
2019-05-23T19:36:50.674Z,84.1
2019-05-23T19:38:50.683Z,85.9
2019-05-23T19:40:49.925Z,87.9
2019-05-23T19:42:49.902Z,89.6
2019-05-23T19:44:50.016Z,90.3
2019-05-23T19:46:50.345Z,90.0
2019-05-23T19:48:50.453Z,90.0
2019-05-23T19:50:50.559Z,91.1
2019-05-23T19:52:50.665Z,92.2
2019-05-23T19:54:50.757Z,92.4
2019-05-23T19:56:49.884Z,92.4
2019-05-23T19:58:49.938Z,92.8
2019-05-23T20:00:50.002Z,91.7
2019-05-23T20:02:50.100Z,93.5
2019-05-23T20:04:50.493Z,94.7
2019-05-23T20:06:50.699Z,95.3
2019-05-23T20:08:49.840Z,95.9
2019-05-23T20:10:49.977Z,95.7
2019-05-23T20:12:50.084Z,98.0
2019-05-23T20:14:50.171Z,98.0
2019-05-23T20:16:50.387Z,98.8
2019-05-23T20:18:50.454Z,98.8
2019-05-23T20:20:50.564Z,99.2
2019-05-23T20:22:50.621Z,98.3
2019-05-23T20:24:50.766Z,100.0
2019-05-23T20:26:49.998Z,100.0
2019-05-23T20:28:50.116Z,100.0
2019-05-23T20:30:50.260Z,100.0
2019-05-23T20:32:50.343Z,100.0
2019-05-23T20:34:50.752Z,100.0
2019-05-23T20:36:49.913Z,100.0
2019-05-23T20:38:50.002Z,100.0
2019-05-23T20:40:50.083Z,100.0
2019-05-23T20:42:50.149Z,100.0
2019-05-23T20:44:50.289Z,100.0
2019-05-23T20:46:50.494Z,100.0
2019-05-23T20:48:50.623Z,100.0
2019-05-23T20:50:50.805Z,100.0
2019-05-23T20:52:49.869Z,100.0
2019-05-23T20:54:50.010Z,100.0
2019-05-23T20:56:50.229Z,100.0
2019-05-23T20:58:50.310Z,100.0
2019-05-23T21:00:50.404Z,100.0
2019-05-23T21:02:49.855Z,100.0
2019-05-23T21:04:50.391Z,100.0
2019-05-23T21:06:50.580Z,100.0
2019-05-23T21:08:50.617Z,100.0
2019-05-23T21:10:50.695Z,100.0
2019-05-23T21:12:49.869Z,100.0
2019-05-23T21:14:49.850Z,100.0
2019-05-23T21:16:50.157Z,100.0
2019-05-23T21:18:50.858Z,100.0
2019-05-23T21:20:49.968Z,100.0
2019-05-23T21:22:50.024Z,100.0
2019-05-23T21:24:50.123Z,100.0
2019-05-23T21:26:50.311Z,100.0
2019-05-23T21:28:50.433Z,100.0
2019-05-23T21:30:50.539Z,100.0
2019-05-23T21:32:50.808Z,100.0
2019-05-23T21:34:50.294Z,100.0
2019-05-23T21:36:50.569Z,100.0
2019-05-23T21:38:50.700Z,100.0
2019-05-23T21:40:49.837Z,100.0
2019-05-23T21:42:49.991Z,100.0
2019-05-23T21:44:50.001Z,100.0
2019-05-23T21:46:50.174Z,100.0
2019-05-23T21:48:50.392Z,100.0
2019-05-23T21:50:50.454Z,100.0
2019-05-23T21:52:50.540Z,100.0
2019-05-23T21:54:50.548Z,100.0
2019-05-23T21:56:50.779Z,100.0
2019-05-23T21:58:49.883Z,100.0
2019-05-23T22:00:49.827Z,100.0
2019-05-23T22:02:50.014Z,100.0
2019-05-23T22:04:50.409Z,100.0
2019-05-23T22:06:52.872Z,100.0
2019-05-23T22:08:50.478Z,100.0
2019-05-23T22:10:50.501Z,100.0
2019-05-23T22:13:05.187Z,100.0
2019-05-23T22:14:49.976Z,100.0
2019-05-23T22:16:50.172Z,100.0
2019-05-23T22:18:50.174Z,100.0
2019-05-23T22:20:50.269Z,100.0
2019-05-23T22:22:50.298Z,100.0
2019-05-23T22:24:50.499Z,100.0
2019-05-23T22:26:50.767Z,100.0
2019-05-23T22:28:50.734Z,100.0
2019-05-23T22:30:50.673Z,100.0
2019-05-23T22:32:50.704Z,100.0
2019-05-23T22:34:50.014Z,100.0
2019-05-23T22:36:50.103Z,100.0
2019-05-23T22:38:50.091Z,100.0
2019-05-23T22:40:50.031Z,100.0
2019-05-23T22:42:50.040Z,100.0
2019-05-23T22:44:50.008Z,100.0
2019-05-23T22:46:50.141Z,100.0
2019-05-23T22:48:50.111Z,100.0
2019-05-23T22:50:50.034Z,100.0
2019-05-23T22:52:50.029Z,100.0
2019-05-23T22:54:50.011Z,100.0
2019-05-23T22:56:50.123Z,100.0
2019-05-23T22:58:50.109Z,100.0
2019-05-23T23:00:50.029Z,100.0
2019-05-23T23:02:50.096Z,100.0
2019-05-23T23:04:50.440Z,100.0
2019-05-23T23:06:50.571Z,100.0
2019-05-23T23:08:50.541Z,100.0
2019-05-23T23:10:50.511Z,100.0
2019-05-23T23:12:50.637Z,100.0
2019-05-23T23:14:50.585Z,100.0
2019-05-23T23:16:50.742Z,100.0
2019-05-23T23:18:50.755Z,100.0
2019-05-23T23:20:50.695Z,100.0
2019-05-23T23:22:50.775Z,100.0
2019-05-23T23:24:50.675Z,100.0
2019-05-23T23:26:49.888Z,100.0
2019-05-23T23:28:49.838Z,100.0
2019-05-23T23:30:50.713Z,100.0
2019-05-23T23:32:49.828Z,100.0
2019-05-23T23:34:50.308Z,100.0
2019-05-23T23:36:50.478Z,100.0
2019-05-23T23:38:50.383Z,100.0
2019-05-23T23:40:50.404Z,100.0
2019-05-23T23:42:50.474Z,100.0
2019-05-23T23:44:50.588Z,100.0
2019-05-23T23:46:50.617Z,100.0
2019-05-23T23:48:50.547Z,100.0
2019-05-23T23:50:50.596Z,100.0
2019-05-23T23:52:50.493Z,100.0
2019-05-23T23:54:50.484Z,100.0
2019-05-23T23:56:50.508Z,100.0
2019-05-23T23:58:50.478Z,100.0
